createdAt,value
2022-09-28T00:00:52.364Z,98779.44
2022-09-28T00:03:19.232Z,98780.81
2022-09-28T00:05:45.986Z,98772.47
2022-09-28T00:08:13.781Z,98770.19
2022-09-28T00:10:41.571Z,98762.75
2022-09-28T00:13:08.380Z,98760.22
2022-09-28T00:15:35.718Z,98770.31
2022-09-28T00:18:02.577Z,98765.16
2022-09-28T00:20:29.323Z,98769.63
2022-09-28T00:22:56.050Z,98766.13
2022-09-28T00:25:25.020Z,98758.75
2022-09-28T00:27:51.815Z,98755.31
2022-09-28T00:30:18.586Z,98752.50
2022-09-28T00:32:45.523Z,98754.81
2022-09-28T00:35:12.388Z,98747.34
2022-09-28T00:37:39.336Z,98745.72
2022-09-28T00:40:06.749Z,98736.19
2022-09-28T00:42:33.858Z,98743.50
2022-09-28T00:45:00.607Z,98736.56
2022-09-28T00:47:49.945Z,98744.78
2022-09-28T00:50:28.991Z,98732.88
2022-09-28T00:52:57.764Z,98731.81
2022-09-28T00:55:34.533Z,98734.69
2022-09-28T00:58:05.751Z,98711.13
2022-09-28T01:00:32.669Z,98719.16
2022-09-28T01:03:00.062Z,98717.75
2022-09-28T01:05:27.532Z,98721.66
2022-09-28T01:07:56.509Z,98718.41
2022-09-28T01:10:23.890Z,98719.38
2022-09-28T01:12:50.986Z,98711.50
2022-09-28T01:15:21.853Z,98712.13
2022-09-28T01:18:00.064Z,98705.19
2022-09-28T01:21:01.381Z,98696.59
2022-09-28T01:23:44.229Z,98700.03
2022-09-28T01:26:29.397Z,98698.22
2022-09-28T01:29:04.770Z,98690.22
2022-09-28T01:31:36.485Z,98700.97
2022-09-28T01:34:39.556Z,98702.44
2022-09-28T01:37:12.431Z,98705.53
2022-09-28T01:39:47.633Z,98691.91
2022-09-28T01:42:27.609Z,98693.91
2022-09-28T01:45:01.078Z,98690.19
2022-09-28T01:47:33.441Z,98694.78
2022-09-28T01:50:11.216Z,98689.81
2022-09-28T01:52:56.434Z,98684.41
2022-09-28T01:55:30.856Z,98688.25
2022-09-28T01:58:34.430Z,98672.97
2022-09-28T02:01:09.388Z,98673.56
2022-09-28T02:03:43.114Z,98666.34
2022-09-28T02:06:19.044Z,98670.78
2022-09-28T02:08:54.796Z,98666.78
2022-09-28T02:11:28.303Z,98665.91
2022-09-28T02:14:01.986Z,98676.47
2022-09-28T02:16:31.836Z,98659.78
2022-09-28T02:18:59.180Z,98658.75
2022-09-28T02:21:38.532Z,98648.06
2022-09-28T02:24:21.564Z,98644.94
2022-09-28T02:26:52.122Z,98652.63
2022-09-28T02:29:19.142Z,98651.81
2022-09-28T02:31:46.083Z,98640.28
2022-09-28T02:34:13.099Z,98648.94
2022-09-28T02:36:39.918Z,98638.25
2022-09-28T02:39:18.160Z,98642.06
2022-09-28T02:42:20.420Z,98640.38
2022-09-28T02:44:57.875Z,98643.63
2022-09-28T02:47:41.864Z,98639.50
2022-09-28T02:50:26.324Z,98638.47
2022-09-28T02:52:59.223Z,98640.81
2022-09-28T02:55:26.126Z,98651.09
2022-09-28T02:58:01.839Z,98643.47
2022-09-28T03:00:32.128Z,98650.00
2022-09-28T03:03:17.368Z,98657.69
2022-09-28T03:06:14.691Z,98657.69
2022-09-28T03:09:04.876Z,98654.72
2022-09-28T03:11:47.264Z,98650.78
2022-09-28T03:14:15.420Z,98649.34
2022-09-28T03:16:49.661Z,98652.34
2022-09-28T03:19:20.301Z,98651.34
2022-09-28T03:21:47.886Z,98651.13
2022-09-28T03:24:15.006Z,98641.00
2022-09-28T03:26:41.918Z,98650.31
2022-09-28T03:29:10.132Z,98645.03
2022-09-28T03:31:38.361Z,98640.38
2022-09-28T03:34:05.763Z,98637.84
2022-09-28T03:36:32.683Z,98642.94
2022-09-28T03:38:59.811Z,98636.59
2022-09-28T03:41:29.978Z,98630.47
2022-09-28T03:43:56.925Z,98636.56
2022-09-28T03:46:26.186Z,98626.22
2022-09-28T03:48:58.408Z,98627.06
2022-09-28T03:51:26.353Z,98617.78
2022-09-28T03:53:53.635Z,98621.75
2022-09-28T03:56:21.035Z,98618.81
2022-09-28T03:58:47.928Z,98621.41
2022-09-28T04:01:18.822Z,98623.69
2022-09-28T04:03:47.335Z,98617.13
2022-09-28T04:06:14.678Z,98620.31
2022-09-28T04:08:43.145Z,98609.78
2022-09-28T04:11:10.470Z,98599.34
2022-09-28T04:13:37.425Z,98602.53
2022-09-28T04:16:06.802Z,98588.44
2022-09-28T04:18:35.396Z,98596.38
2022-09-28T04:21:11.850Z,98596.22
2022-09-28T04:23:59.598Z,98595.72
2022-09-28T04:26:28.472Z,98592.00
2022-09-28T04:29:15.145Z,98576.84
2022-09-28T04:31:52.759Z,98587.94
2022-09-28T04:34:23.195Z,98580.16
2022-09-28T04:36:50.154Z,98586.22
2022-09-28T04:39:19.365Z,98589.63
2022-09-28T04:41:55.365Z,98579.06
2022-09-28T04:44:22.252Z,98574.22
2022-09-28T04:46:51.858Z,98576.47
2022-09-28T04:49:39.053Z,98578.78
2022-09-28T04:52:20.193Z,98574.03
2022-09-28T04:54:49.197Z,98575.56
2022-09-28T04:57:16.646Z,98575.25
2022-09-28T04:59:43.507Z,98565.19
2022-09-28T05:02:10.482Z,98572.69
2022-09-28T05:04:56.609Z,98572.66
2022-09-28T05:07:49.279Z,98570.78
2022-09-28T05:10:17.313Z,98571.81
2022-09-28T05:12:44.157Z,98573.19
2022-09-28T05:15:11.481Z,98572.31
2022-09-28T05:17:38.369Z,98575.81
2022-09-28T05:20:28.038Z,98585.69
2022-09-28T05:22:54.934Z,98569.81
2022-09-28T05:25:21.888Z,98577.88
2022-09-28T05:28:05.248Z,98577.47
2022-09-28T05:30:50.617Z,98571.91
2022-09-28T05:33:25.156Z,98561.91
2022-09-28T05:36:12.190Z,98569.53
2022-09-28T05:38:39.167Z,98567.91
2022-09-28T05:41:06.875Z,98562.81
2022-09-28T05:43:34.000Z,98560.91
2022-09-28T05:46:04.097Z,98558.38
2022-09-28T05:48:31.236Z,98563.09
2022-09-28T05:50:59.809Z,98565.34
2022-09-28T05:53:26.798Z,98566.19
2022-09-28T05:55:57.288Z,98560.25
2022-09-28T05:58:24.199Z,98561.31
2022-09-28T06:00:57.564Z,98562.72
2022-09-28T06:03:25.193Z,98563.25
2022-09-28T06:05:52.089Z,98561.34
2022-09-28T06:08:19.484Z,98558.28
2022-09-28T06:10:53.605Z,98559.22
2022-09-28T06:13:20.932Z,98559.84
2022-09-28T06:15:47.876Z,98562.47
2022-09-28T06:18:15.297Z,98562.25
2022-09-28T06:21:01.224Z,98572.06
2022-09-28T06:23:32.814Z,98566.41
2022-09-28T06:26:00.370Z,98574.50
2022-09-28T06:28:27.366Z,98567.63
2022-09-28T06:30:54.554Z,98565.28
2022-09-28T06:33:22.164Z,98567.13
2022-09-28T06:35:49.083Z,98565.44
2022-09-28T06:38:16.236Z,98566.69
2022-09-28T06:40:43.151Z,98568.78
2022-09-28T06:43:12.760Z,98575.75
2022-09-28T06:45:58.164Z,98567.13
2022-09-28T06:48:45.273Z,98571.00
2022-09-28T06:51:19.646Z,98581.09
2022-09-28T06:54:12.697Z,98574.38
2022-09-28T06:56:40.997Z,98578.41
2022-09-28T06:59:07.840Z,98578.16
2022-09-28T07:01:36.543Z,98577.25
2022-09-28T07:04:10.599Z,98581.47
2022-09-28T07:06:56.031Z,98578.34
2022-09-28T07:09:44.963Z,98587.53
2022-09-28T07:12:36.313Z,98580.41
2022-09-28T07:15:12.292Z,98577.59
2022-09-28T07:17:54.554Z,98588.88
2022-09-28T07:20:25.562Z,98596.84
2022-09-28T07:22:59.433Z,98596.47
2022-09-28T07:25:31.701Z,98592.72
2022-09-28T07:28:18.861Z,98592.66
2022-09-28T07:31:25.332Z,98605.22
2022-09-28T07:34:11.378Z,98603.28
2022-09-28T07:36:58.958Z,98606.78
2022-09-28T07:39:26.174Z,98607.41
2022-09-28T07:41:56.667Z,98614.66
2022-09-28T07:44:28.003Z,98604.81
2022-09-28T07:46:54.857Z,98605.66
2022-09-28T07:49:36.857Z,98608.97
2022-09-28T07:52:28.983Z,98609.59
2022-09-28T07:55:16.193Z,98613.97
2022-09-28T07:58:01.948Z,98614.41
2022-09-28T08:00:49.790Z,98606.53
2022-09-28T08:03:18.864Z,98613.88
2022-09-28T08:05:46.977Z,98621.16
2022-09-28T08:08:15.143Z,98612.09
2022-09-28T08:10:46.883Z,98610.78
2022-09-28T08:13:37.619Z,98612.75
2022-09-28T08:16:23.446Z,98620.72
2022-09-28T08:18:58.286Z,98616.28
2022-09-28T08:21:44.468Z,98616.22
2022-09-28T08:24:14.151Z,98626.50
2022-09-28T08:26:41.467Z,98620.06
2022-09-28T08:29:08.600Z,98628.66
2022-09-28T08:31:57.266Z,98628.91
2022-09-28T08:34:40.409Z,98636.72
2022-09-28T08:37:27.583Z,98642.22
2022-09-28T08:40:18.840Z,98638.16
2022-09-28T08:43:14.316Z,98636.00
2022-09-28T08:46:13.621Z,98642.75
2022-09-28T08:49:27.230Z,98642.50
2022-09-28T08:52:38.937Z,98638.88
2022-09-28T08:55:28.826Z,98641.03
2022-09-28T08:58:05.101Z,98651.19
2022-09-28T09:00:49.189Z,98649.00
2022-09-28T09:03:22.603Z,98647.06
2022-09-28T09:06:04.769Z,98648.44
2022-09-28T09:08:47.941Z,98656.00
2022-09-28T09:11:34.331Z,98650.22
2022-09-28T09:14:34.115Z,98649.50
2022-09-28T09:17:34.759Z,98651.16
2022-09-28T09:20:34.188Z,98650.69
2022-09-28T09:23:39.373Z,98654.53
2022-09-28T09:26:39.370Z,98657.75
2022-09-28T09:29:33.048Z,98658.84
2022-09-28T09:32:14.662Z,98661.00
2022-09-28T09:35:01.518Z,98666.72
2022-09-28T09:38:07.234Z,98669.47
2022-09-28T09:40:58.406Z,98656.50
2022-09-28T09:44:20.829Z,98673.59
2022-09-28T09:47:10.482Z,98663.34
2022-09-28T09:50:08.366Z,98673.09
2022-09-28T09:53:00.706Z,98663.09
2022-09-28T09:55:30.477Z,98661.88
2022-09-28T09:58:29.395Z,98671.16
2022-09-28T10:01:18.576Z,98676.72
2022-09-28T10:04:23.538Z,98676.47
2022-09-28T10:06:57.574Z,98682.47
2022-09-28T10:09:30.352Z,98673.72
2022-09-28T10:12:22.794Z,98677.19
2022-09-28T10:14:50.713Z,98681.06
2022-09-28T10:17:20.130Z,98682.03
2022-09-28T10:20:06.726Z,98676.34
2022-09-28T10:22:53.812Z,98683.66
2022-09-28T10:25:21.925Z,98669.03
2022-09-28T10:27:52.665Z,98675.75
2022-09-28T10:30:25.215Z,98688.50
2022-09-28T10:32:55.593Z,98682.84
2022-09-28T10:35:25.869Z,98688.03
2022-09-28T10:38:17.040Z,98689.25
2022-09-28T10:40:48.231Z,98685.34
2022-09-28T10:43:38.619Z,98685.88
2022-09-28T10:46:21.382Z,98689.22
2022-09-28T10:48:59.725Z,98689.13
2022-09-28T10:51:53.665Z,98690.44
2022-09-28T10:54:32.051Z,98692.50
2022-09-28T10:57:01.182Z,98692.13
2022-09-28T10:59:48.230Z,98698.81
2022-09-28T11:02:36.602Z,98697.03
2022-09-28T11:05:19.867Z,98707.19
2022-09-28T11:07:48.225Z,98696.22
2022-09-28T11:10:29.035Z,98708.03
2022-09-28T11:13:02.062Z,98714.28
2022-09-28T11:15:33.253Z,98715.47
2022-09-28T11:18:22.637Z,98712.72
2022-09-28T11:20:49.814Z,98718.72
2022-09-28T11:23:30.164Z,98726.53
2022-09-28T11:26:18.321Z,98720.16
2022-09-28T11:28:57.165Z,98713.41
2022-09-28T11:31:54.032Z,98721.84
2022-09-28T11:34:57.528Z,98734.28
2022-09-28T11:41:30.986Z,98723.09
2022-09-28T11:44:24.832Z,98728.91
2022-09-28T11:47:38.704Z,98729.19
2022-09-28T11:50:24.600Z,98728.66
2022-09-28T11:53:11.716Z,98734.63
2022-09-28T11:59:27.878Z,98738.19
2022-09-28T12:02:23.585Z,98735.31
2022-09-28T12:05:08.826Z,98744.16
2022-09-28T12:08:01.375Z,98745.75
2022-09-28T12:10:57.520Z,98744.25
2022-09-28T12:17:07.614Z,98738.00
2022-09-28T12:20:01.067Z,98741.47
2022-09-28T12:23:15.319Z,98750.50
2022-09-28T12:25:56.312Z,98743.94
2022-09-28T12:28:51.557Z,98740.59
2022-09-28T12:31:29.663Z,98743.00
2022-09-28T12:34:12.442Z,98740.69
2022-09-28T12:37:26.214Z,98733.78
2022-09-28T12:40:37.803Z,98739.72
2022-09-28T12:43:13.123Z,98747.41
2022-09-28T12:46:15.807Z,98731.72
2022-09-28T12:49:51.611Z,98743.97
2022-09-28T12:51:59.672Z,98748.22
2022-09-28T12:54:35.385Z,98750.31
2022-09-28T12:57:14.394Z,98752.31
2022-09-28T13:00:05.857Z,98754.72
2022-09-28T13:02:41.837Z,98759.34
2022-09-28T13:05:14.658Z,98747.78
2022-09-28T13:07:56.527Z,98752.31
2022-09-28T13:10:41.920Z,98757.31
2022-09-28T13:13:56.542Z,98761.03
2022-09-28T13:16:46.054Z,98765.88
2022-09-28T13:19:43.770Z,98757.81
2022-09-28T13:22:44.189Z,98755.97
2022-09-28T13:25:18.077Z,98757.94
2022-09-28T13:27:53.400Z,98762.72
2022-09-28T13:30:20.543Z,98758.03
2022-09-28T13:32:49.899Z,98760.44
2022-09-28T13:35:21.493Z,98762.13
2022-09-28T13:38:08.595Z,98765.41
2022-09-28T13:41:06.345Z,98765.41
2022-09-28T13:43:57.433Z,98767.56
2022-09-28T13:46:51.842Z,98763.44
2022-09-28T13:49:27.722Z,98764.94
2022-09-28T13:52:30.676Z,98765.38
2022-09-28T13:55:14.406Z,98767.31
2022-09-28T13:58:04.560Z,98771.19
2022-09-28T14:00:51.594Z,98777.47
2022-09-28T14:03:37.232Z,98774.31
2022-09-28T14:06:21.163Z,98778.53
2022-09-28T14:09:18.561Z,98784.22
2022-09-28T14:12:02.114Z,98788.53
2022-09-28T14:14:48.229Z,98791.19
2022-09-28T14:17:20.944Z,98787.69
2022-09-28T14:19:57.119Z,98788.78
2022-09-28T14:22:29.855Z,98795.06
2022-09-28T14:25:17.372Z,98792.41
2022-09-28T14:28:16.945Z,98796.00
2022-09-28T14:30:43.772Z,98800.72
2022-09-28T14:33:22.653Z,98798.41
2022-09-28T14:35:54.107Z,98803.84
2022-09-28T14:38:47.543Z,98801.31
2022-09-28T14:41:18.134Z,98811.59
2022-09-28T14:43:45.326Z,98812.34
2022-09-28T14:46:26.095Z,98816.59
2022-09-28T14:48:58.470Z,98815.91
2022-09-28T14:51:34.325Z,98810.63
2022-09-28T14:54:03.870Z,98815.34
2022-09-28T14:56:41.089Z,98815.28
2022-09-28T14:59:19.743Z,98817.00
2022-09-28T15:04:52.552Z,98817.44
2022-09-28T15:07:42.142Z,98815.28
2022-09-28T15:10:34.436Z,98817.19
2022-09-28T15:13:25.972Z,98819.00
2022-09-28T15:16:18.738Z,98816.03
2022-09-28T15:18:56.349Z,98817.72
2022-09-28T15:21:33.855Z,98823.09
2022-09-28T15:24:02.749Z,98823.84
2022-09-28T15:26:33.145Z,98822.03
2022-09-28T15:29:03.130Z,98818.44
2022-09-28T15:31:34.754Z,98822.53
2022-09-28T15:34:20.261Z,98818.19
2022-09-28T15:36:47.495Z,98820.59
2022-09-28T15:39:41.529Z,98830.25
2022-09-28T15:42:08.476Z,98826.53
2022-09-28T15:44:37.214Z,98833.91
2022-09-28T15:47:26.956Z,98831.94
2022-09-28T15:50:04.800Z,98828.34
2022-09-28T15:52:45.149Z,98827.75
2022-09-28T15:55:29.079Z,98838.69
2022-09-28T15:58:17.275Z,98841.31
2022-09-28T16:00:46.785Z,98835.53
2022-09-28T16:03:35.250Z,98832.66
2022-09-28T16:06:15.418Z,98834.81
2022-09-28T16:08:50.454Z,98844.50
2022-09-28T16:11:43.374Z,98848.19
2022-09-28T16:14:23.253Z,98843.50
2022-09-28T16:17:38.554Z,98848.53
2022-09-28T16:20:29.023Z,98853.81
2022-09-28T16:23:08.057Z,98862.88
2022-09-28T16:26:04.357Z,98859.38
2022-09-28T16:28:37.602Z,98865.06
2022-09-28T16:31:13.882Z,98872.09
2022-09-28T16:33:55.631Z,98877.66
2022-09-28T16:36:40.253Z,98873.63
2022-09-28T16:39:07.105Z,98874.22
2022-09-28T16:41:34.479Z,98874.44
2022-09-28T16:44:07.156Z,98880.88
2022-09-28T16:49:24.203Z,98886.09
2022-09-28T16:52:08.749Z,98895.28
2022-09-28T16:58:14.864Z,98882.44
2022-09-28T17:00:48.908Z,98897.34
2022-09-28T17:03:24.042Z,98903.72
2022-09-28T17:05:51.707Z,98901.22
2022-09-28T17:08:25.468Z,98905.25
2022-09-28T17:11:15.863Z,98907.00
2022-09-28T17:13:46.397Z,98910.56
2022-09-28T17:16:36.718Z,98907.69
2022-09-28T17:19:24.201Z,98909.66
2022-09-28T17:21:56.448Z,98911.31
2022-09-28T17:24:24.677Z,98916.13
2022-09-28T17:26:55.151Z,98909.84
2022-09-28T17:32:20.694Z,98913.88
2022-09-28T17:35:00.740Z,98920.22
2022-09-28T17:37:46.520Z,98917.38
2022-09-28T17:40:24.170Z,98924.63
2022-09-28T17:43:06.637Z,98933.84
2022-09-28T17:45:41.308Z,98931.50
2022-09-28T17:48:26.441Z,98927.19
2022-09-28T17:51:05.247Z,98936.56
2022-09-28T17:53:39.368Z,98934.31
2022-09-28T17:56:13.197Z,98933.06
2022-09-28T17:58:41.138Z,98943.22
2022-09-28T18:01:09.302Z,98942.16
2022-09-28T18:03:39.621Z,98944.72
2022-09-28T18:06:32.424Z,98949.00
2022-09-28T18:09:03.138Z,98958.19
2022-09-28T18:11:39.462Z,98955.84
2022-09-28T18:14:15.205Z,98955.75
2022-09-28T18:16:46.749Z,98955.38
2022-09-28T18:19:19.614Z,98959.59
2022-09-28T18:21:55.272Z,98960.00
2022-09-28T18:24:27.382Z,98959.78
2022-09-28T18:26:54.614Z,98969.28
2022-09-28T18:29:35.567Z,98966.09
2022-09-28T18:32:03.797Z,98964.28
2022-09-28T18:37:28.069Z,98965.28
2022-09-28T18:39:55.687Z,98971.84
2022-09-28T18:42:26.331Z,98965.59
2022-09-28T18:44:54.973Z,98974.59
2022-09-28T18:47:22.537Z,98977.56
2022-09-28T18:49:51.043Z,98974.38
2022-09-28T18:52:17.762Z,98981.38
2022-09-28T18:54:46.755Z,98979.88
2022-09-28T18:57:13.502Z,98982.84
2022-09-28T18:59:40.176Z,98979.78
2022-09-28T19:02:07.059Z,98979.88
2022-09-28T19:04:33.879Z,98982.34
2022-09-28T19:07:00.580Z,98984.38
2022-09-28T19:09:28.164Z,98988.16
2022-09-28T19:11:54.902Z,98990.78
2022-09-28T19:14:21.755Z,98991.75
2022-09-28T19:16:49.581Z,98989.84
2022-09-28T19:19:19.126Z,98990.50
2022-09-28T19:21:47.728Z,98998.53
2022-09-28T19:24:16.505Z,98990.72
2022-09-28T19:26:44.072Z,98997.50
2022-09-28T19:29:11.164Z,98998.78
2022-09-28T19:31:38.278Z,99000.13
2022-09-28T19:34:06.166Z,99004.28
2022-09-28T19:36:33.626Z,99006.25
2022-09-28T19:39:04.152Z,99013.47
2022-09-28T19:41:43.302Z,99012.31
2022-09-28T19:44:13.491Z,99006.19
2022-09-28T19:46:40.790Z,99013.78
2022-09-28T19:49:10.884Z,99012.53
2022-09-28T19:51:46.963Z,99010.19
2022-09-28T19:54:26.636Z,99016.75
2022-09-28T19:56:54.070Z,99016.34
2022-09-28T19:59:21.479Z,99019.06
2022-09-28T20:01:49.125Z,99021.19
2022-09-28T20:04:16.150Z,99031.38
2022-09-28T20:06:43.328Z,99027.56
2022-09-28T20:09:10.121Z,99027.53
2022-09-28T20:11:37.004Z,99027.34
2022-09-28T20:14:09.603Z,99023.91
2022-09-28T20:16:36.844Z,99026.69
2022-09-28T20:19:04.908Z,99022.91
2022-09-28T20:21:31.700Z,99032.00
2022-09-28T20:23:58.535Z,99027.75
2022-09-28T20:26:26.857Z,99041.97
2022-09-28T20:28:54.460Z,99031.59
2022-09-28T20:31:24.999Z,99034.06
2022-09-28T20:33:52.098Z,99042.78
2022-09-28T20:36:23.739Z,99047.69
2022-09-28T20:38:53.026Z,99046.88
2022-09-28T20:41:22.056Z,99046.00
2022-09-28T20:43:56.685Z,99043.22
2022-09-28T20:46:24.048Z,99041.97
2022-09-28T20:48:52.032Z,99048.63
2022-09-28T20:51:20.185Z,99048.63
2022-09-28T20:53:51.070Z,99050.41
2022-09-28T20:56:23.546Z,99050.59
2022-09-28T20:58:51.208Z,99056.16
2022-09-28T21:01:22.381Z,99050.16
2022-09-28T21:03:52.009Z,99053.16
2022-09-28T21:06:20.514Z,99047.25
2022-09-28T21:08:48.960Z,99051.72
2022-09-28T21:11:20.941Z,99057.63
2022-09-28T21:13:51.625Z,99061.47
2022-09-28T21:16:18.395Z,99061.25
2022-09-28T21:18:45.343Z,99063.69
2022-09-28T21:21:14.900Z,99069.06
2022-09-28T21:23:44.930Z,99071.41
2022-09-28T21:26:26.636Z,99073.72
2022-09-28T21:29:01.329Z,99075.00
2022-09-28T21:31:31.545Z,99072.25
2022-09-28T21:33:58.780Z,99086.84
2022-09-28T21:36:25.564Z,99084.09
2022-09-28T21:38:53.575Z,99082.94
2022-09-28T21:41:20.218Z,99080.72
2022-09-28T21:43:46.992Z,99078.16
2022-09-28T21:46:13.939Z,99089.50
2022-09-28T21:48:41.037Z,99086.22
2022-09-28T21:51:10.163Z,99082.38
2022-09-28T21:53:38.151Z,99078.59
2022-09-28T21:56:09.647Z,99094.25
2022-09-28T21:58:36.524Z,99085.41
2022-09-28T22:01:05.344Z,99090.25
2022-09-28T22:03:33.858Z,99091.50
2022-09-28T22:06:00.559Z,99093.00
2022-09-28T22:08:27.414Z,99095.97
2022-09-28T22:11:19.083Z,99095.78
2022-09-28T22:13:54.343Z,99090.72
2022-09-28T22:16:23.138Z,99089.41
2022-09-28T22:18:50.131Z,99089.00
2022-09-28T22:21:20.049Z,99089.00
2022-09-28T22:23:47.059Z,99091.09
2022-09-28T22:26:19.581Z,99090.66
2022-09-28T22:28:48.566Z,99092.38
2022-09-28T22:31:16.756Z,99086.44
2022-09-28T22:33:44.077Z,99089.84
2022-09-28T22:36:11.076Z,99085.81
2022-09-28T22:38:37.882Z,99086.03
2022-09-28T22:41:04.731Z,99089.81
2022-09-28T22:43:31.793Z,99086.44
2022-09-28T22:46:16.858Z,99095.66
2022-09-28T22:49:01.872Z,99094.59
2022-09-28T22:51:29.919Z,99093.63
2022-09-28T22:53:56.948Z,99092.03
2022-09-28T22:56:24.040Z,99098.31
2022-09-28T22:58:51.034Z,99096.91
2022-09-28T23:01:21.169Z,99102.44
2022-09-28T23:03:48.572Z,99104.00
2022-09-28T23:06:17.655Z,99106.94
2022-09-28T23:08:45.541Z,99109.06
2022-09-28T23:11:12.207Z,99112.66
2022-09-28T23:13:39.170Z,99109.44
2022-09-28T23:16:08.250Z,99103.38
2022-09-28T23:18:37.176Z,99101.03
2022-09-28T23:21:06.027Z,99095.47
2022-09-28T23:23:33.054Z,99102.91
2022-09-28T23:26:00.489Z,99112.22
2022-09-28T23:28:27.752Z,99108.81
2022-09-28T23:30:54.742Z,99109.38
2022-09-28T23:33:22.280Z,99107.41
2022-09-28T23:35:49.840Z,99109.25
2022-09-28T23:38:18.323Z,99110.03
2022-09-28T23:40:46.730Z,99113.50
2022-09-28T23:43:14.650Z,99107.34
2022-09-28T23:45:44.581Z,99109.66
2022-09-28T23:48:13.363Z,99110.88
2022-09-28T23:50:40.024Z,99116.53
2022-09-28T23:53:06.792Z,99116.16
2022-09-28T23:55:33.450Z,99116.50
2022-09-28T23:58:00.255Z,99114.66
